createdAt,value
2022-09-03T00:02:16.083Z,4.90
2022-09-03T00:04:58.581Z,4.50
2022-09-03T00:08:21.548Z,4.03
2022-09-03T00:11:32.782Z,5.22
2022-09-03T00:14:07.239Z,3.95
2022-09-03T00:16:46.051Z,5.40
2022-09-03T00:19:21.237Z,4.68
2022-09-03T00:21:58.925Z,4.43
2022-09-03T00:24:33.901Z,4.45
2022-09-03T00:27:07.573Z,4.63
2022-09-03T00:29:46.343Z,3.97
2022-09-03T00:32:26.474Z,4.50
2022-09-03T00:35:07.824Z,4.03
2022-09-03T00:37:38.221Z,5.00
2022-09-03T00:40:23.229Z,4.40
2022-09-03T00:43:06.476Z,5.40
2022-09-03T00:46:06.197Z,4.78
2022-09-03T00:49:28.784Z,5.38
2022-09-03T00:52:15.127Z,4.50
2022-09-03T00:55:26.352Z,5.03
2022-09-03T00:58:30.716Z,5.28
2022-09-03T01:00:59.253Z,6.22
2022-09-03T01:04:07.724Z,4.88
2022-09-03T01:07:15.999Z,4.60
2022-09-03T01:10:27.415Z,5.28
2022-09-03T01:12:58.277Z,4.57
2022-09-03T01:15:54.454Z,4.82
2022-09-03T01:26:22.933Z,5.32
2022-09-03T01:29:22.211Z,4.05
2022-09-03T01:32:15.355Z,5.45
2022-09-03T01:45:31.605Z,5.53
2022-09-03T01:48:24.408Z,5.00
2022-09-03T01:51:02.494Z,4.78
2022-09-03T01:53:45.749Z,4.78
2022-09-03T01:56:50.692Z,4.72
2022-09-03T01:59:35.581Z,4.82
2022-09-03T02:02:12.780Z,5.05
2022-09-03T02:04:40.386Z,4.60
2022-09-03T02:07:08.236Z,5.20
2022-09-03T02:09:35.793Z,4.93
2022-09-03T02:12:18.719Z,5.03
2022-09-03T02:14:47.388Z,4.78
2022-09-03T02:17:14.987Z,4.90
2022-09-03T02:19:42.654Z,5.72
2022-09-03T02:22:10.646Z,5.25
2022-09-03T02:24:38.487Z,5.22
2022-09-03T02:27:06.269Z,5.45
2022-09-03T02:29:34.123Z,5.47
2022-09-03T02:32:01.910Z,5.60
2022-09-03T02:34:30.460Z,5.28
2022-09-03T02:36:58.284Z,5.07
2022-09-03T02:39:27.684Z,5.25
2022-09-03T02:41:57.583Z,5.90
2022-09-03T02:44:34.624Z,5.65
2022-09-03T02:47:07.426Z,5.80
2022-09-03T02:49:35.935Z,6.32
2022-09-03T02:52:11.895Z,4.75
2022-09-03T02:54:40.900Z,4.70
2022-09-03T02:57:11.320Z,6.18
2022-09-03T02:59:39.887Z,5.45
2022-09-03T03:02:08.757Z,6.07
2022-09-03T03:04:36.453Z,6.47
2022-09-03T03:07:04.639Z,5.53
2022-09-03T03:09:32.633Z,5.87
2022-09-03T03:12:00.288Z,5.93
2022-09-03T03:14:27.959Z,5.93
2022-09-03T03:16:55.832Z,6.57
2022-09-03T03:19:23.492Z,5.78
2022-09-03T03:21:51.045Z,5.78
2022-09-03T03:24:18.991Z,5.57
2022-09-03T03:26:46.579Z,5.45
2022-09-03T03:29:18.013Z,5.65
2022-09-03T03:31:45.915Z,5.47
2022-09-03T03:34:13.450Z,5.20
2022-09-03T03:36:41.058Z,6.22
2022-09-03T03:39:11.398Z,5.88
2022-09-03T03:41:39.306Z,6.10
2022-09-03T03:44:08.435Z,5.22
2022-09-03T03:49:26.773Z,5.38
2022-09-03T03:51:54.591Z,6.13
2022-09-03T03:54:22.537Z,5.93
2022-09-03T03:56:55.591Z,5.38
2022-09-03T03:59:23.829Z,5.53
2022-09-03T04:01:55.214Z,5.45
2022-09-03T04:04:23.094Z,5.97
2022-09-03T04:06:50.888Z,6.15
2022-09-03T04:09:18.474Z,5.63
2022-09-03T04:11:45.987Z,5.35
2022-09-03T04:14:13.842Z,5.80
2022-09-03T04:16:41.450Z,5.95
2022-09-03T04:19:09.072Z,6.00
2022-09-03T04:21:36.970Z,6.75
2022-09-03T04:24:05.746Z,6.63
2022-09-03T04:26:34.304Z,6.50
2022-09-03T04:31:34.564Z,5.00
2022-09-03T04:34:02.656Z,6.35
2022-09-03T04:36:31.592Z,7.28
2022-09-03T04:39:01.841Z,7.50
2022-09-03T04:41:31.648Z,7.25
2022-09-03T04:44:00.453Z,7.25
2022-09-03T04:46:33.473Z,6.68
2022-09-03T04:49:02.761Z,5.88
2022-09-03T04:51:31.716Z,6.85
2022-09-03T04:54:02.292Z,7.15
2022-09-03T04:56:39.884Z,7.00
2022-09-03T04:59:09.940Z,6.32
2022-09-03T05:01:39.900Z,6.82
2022-09-03T05:04:08.743Z,6.55
2022-09-03T05:06:37.421Z,7.03
2022-09-03T05:09:06.646Z,7.30
2022-09-03T05:11:34.356Z,6.32
2022-09-03T05:14:02.097Z,6.47
2022-09-03T05:16:31.124Z,7.15
2022-09-03T05:19:01.260Z,9.48
2022-09-03T05:21:30.770Z,8.10
2022-09-03T05:24:01.776Z,8.20
2022-09-03T05:26:36.604Z,8.05
2022-09-03T05:29:07.937Z,7.80
2022-09-03T05:31:39.294Z,7.13
2022-09-03T05:34:08.388Z,6.93
2022-09-03T05:36:38.348Z,7.95
2022-09-03T05:39:06.804Z,7.25
2022-09-03T05:41:35.006Z,6.68
2022-09-03T05:44:04.031Z,7.32
2022-09-03T05:46:33.710Z,6.70
2022-09-03T05:49:06.928Z,5.30
2022-09-03T05:51:37.295Z,6.03
2022-09-03T05:54:05.544Z,8.50
2022-09-03T05:56:35.766Z,8.48
2022-09-03T05:59:07.507Z,8.10
2022-09-03T06:01:50.307Z,8.40
2022-09-03T06:04:20.595Z,7.88
2022-09-03T06:06:49.047Z,8.10
2022-09-03T06:09:19.972Z,4.93
2022-09-03T06:11:50.155Z,6.13
2022-09-03T06:14:18.546Z,6.63
2022-09-03T06:16:49.975Z,4.93
2022-09-03T06:19:18.325Z,4.95
2022-09-03T06:21:47.450Z,4.70
2022-09-03T06:24:28.064Z,4.65
2022-09-03T06:26:57.400Z,4.07
2022-09-03T06:29:25.552Z,5.32
2022-09-03T06:31:53.270Z,4.88
2022-09-03T06:34:22.780Z,5.85
2022-09-03T06:39:22.885Z,4.47
2022-09-03T06:41:52.098Z,5.00
2022-09-03T06:44:27.515Z,4.57
2022-09-03T06:46:55.179Z,2.97
2022-09-03T06:49:23.048Z,3.42
2022-09-03T06:51:50.907Z,3.47
2022-09-03T06:54:19.080Z,3.63
2022-09-03T06:56:46.654Z,4.28
2022-09-03T06:59:15.423Z,5.43
2022-09-03T07:01:46.287Z,5.00
2022-09-03T07:04:20.432Z,4.80
2022-09-03T07:06:48.693Z,4.93
2022-09-03T07:09:18.336Z,3.70
2022-09-03T07:11:48.331Z,4.40
2022-09-03T07:14:21.455Z,6.38
2022-09-03T07:16:50.432Z,4.40
2022-09-03T07:19:18.673Z,5.40
2022-09-03T07:21:50.934Z,4.57
2022-09-03T07:24:22.264Z,2.05
2022-09-03T07:26:51.701Z,2.53
2022-09-03T07:29:22.662Z,2.25
2022-09-03T07:31:52.356Z,2.55
2022-09-03T07:34:25.607Z,2.95
2022-09-03T07:36:54.907Z,1.52
2022-09-03T07:39:22.659Z,1.38
2022-09-03T07:41:50.693Z,2.45
2022-09-03T07:44:20.090Z,2.60
2022-09-03T07:46:51.347Z,2.15
2022-09-03T07:49:21.204Z,2.70
2022-09-03T07:51:52.374Z,2.88
2022-09-03T07:54:21.737Z,2.60
2022-09-03T07:56:49.975Z,2.90
2022-09-03T07:59:18.027Z,3.13
2022-09-03T08:01:45.559Z,2.90
2022-09-03T08:04:13.543Z,2.90
2022-09-03T08:06:42.300Z,2.65
2022-09-03T08:09:13.747Z,2.47
2022-09-03T08:11:43.885Z,2.60
2022-09-03T08:14:14.048Z,2.97
2022-09-03T08:16:47.961Z,3.35
2022-09-03T08:19:18.575Z,3.30
2022-09-03T08:21:46.618Z,4.85
2022-09-03T08:24:18.179Z,2.80
2022-09-03T08:26:51.337Z,2.90
2022-09-03T08:29:21.360Z,4.10
2022-09-03T08:34:17.989Z,3.80
2022-09-03T08:36:47.335Z,4.53
2022-09-03T08:39:16.167Z,4.32
2022-09-03T08:42:26.760Z,3.33
2022-09-03T08:45:02.757Z,3.30
2022-09-03T08:47:48.360Z,2.72
2022-09-03T08:50:56.178Z,3.53
2022-09-03T08:53:46.880Z,3.47
2022-09-03T08:56:32.244Z,4.13
2022-09-03T08:59:02.049Z,3.65
2022-09-03T09:02:20.824Z,4.50
2022-09-03T09:05:20.787Z,3.53
2022-09-03T09:07:53.525Z,3.45
2022-09-03T09:10:48.050Z,3.97
2022-09-03T09:13:54.190Z,3.90
2022-09-03T09:16:46.169Z,3.15
2022-09-03T09:28:38.398Z,4.28
2022-09-03T09:31:12.603Z,3.33
2022-09-03T09:33:40.257Z,3.70
2022-09-03T09:36:17.116Z,3.53
2022-09-03T09:38:47.390Z,4.68
2022-09-03T09:41:28.980Z,3.85
2022-09-03T09:44:03.406Z,3.47
2022-09-03T09:46:54.138Z,3.70
2022-09-03T09:49:56.171Z,3.83
2022-09-03T09:52:29.437Z,2.92
2022-09-03T09:55:11.241Z,3.15
2022-09-03T09:57:40.454Z,3.55
2022-09-03T10:00:16.016Z,3.17
2022-09-03T10:02:54.546Z,2.58
2022-09-03T10:05:26.559Z,4.70
2022-09-03T10:08:02.171Z,2.10
2022-09-03T10:10:35.062Z,1.85
2022-09-03T10:13:12.744Z,2.33
2022-09-03T10:15:55.855Z,2.83
2022-09-03T10:18:44.786Z,2.47
2022-09-03T10:21:51.421Z,3.75
2022-09-03T10:24:42.353Z,2.45
2022-09-03T10:27:14.367Z,3.10
2022-09-03T10:29:42.524Z,2.60
2022-09-03T10:32:44.946Z,2.80
2022-09-03T10:35:39.607Z,2.90
2022-09-03T10:38:31.517Z,2.72
2022-09-03T10:41:05.116Z,2.90
2022-09-03T10:44:12.478Z,3.03
2022-09-03T10:46:52.215Z,2.30
2022-09-03T10:50:04.432Z,2.08
2022-09-03T10:53:12.152Z,2.25
2022-09-03T10:56:02.736Z,2.70
2022-09-03T10:58:49.957Z,2.20
2022-09-03T11:01:47.916Z,2.60
2022-09-03T11:04:19.976Z,2.83
2022-09-03T11:06:54.958Z,2.00
2022-09-03T11:09:40.436Z,2.92
2022-09-03T11:12:23.223Z,2.28
2022-09-03T11:14:59.832Z,3.13
2022-09-03T11:17:38.808Z,2.58
2022-09-03T11:20:15.634Z,2.97
2022-09-03T11:22:45.318Z,2.33
2022-09-03T11:25:20.421Z,1.90
2022-09-03T11:28:03.381Z,2.70
2022-09-03T11:30:41.017Z,2.33
2022-09-03T11:33:11.778Z,2.17
2022-09-03T11:35:42.954Z,1.73
2022-09-03T11:38:16.910Z,2.28
2022-09-03T11:41:16.035Z,2.22
2022-09-03T11:46:21.804Z,1.80
2022-09-03T11:48:56.542Z,1.73
2022-09-03T11:51:33.986Z,1.90
2022-09-03T11:54:03.200Z,1.85
2022-09-03T11:56:35.919Z,1.55
2022-09-03T11:59:13.627Z,1.50
2022-09-03T12:02:01.703Z,2.50
2022-09-03T12:04:49.268Z,1.73
2022-09-03T12:07:49.797Z,1.63
2022-09-03T12:10:41.790Z,1.33
2022-09-03T12:13:30.170Z,1.15
2022-09-03T12:16:27.450Z,1.75
2022-09-03T12:19:04.555Z,1.42
2022-09-03T12:21:50.803Z,1.20
2022-09-03T12:24:20.323Z,1.88
2022-09-03T12:26:48.034Z,0.98
2022-09-03T12:29:27.870Z,1.20
2022-09-03T12:32:06.179Z,1.92
2022-09-03T12:34:33.950Z,1.67
2022-09-03T12:37:03.482Z,1.50
2022-09-03T12:42:28.348Z,6.20
2022-09-03T12:44:56.495Z,2.60
2022-09-03T12:47:35.691Z,3.30
2022-09-03T12:50:25.454Z,2.60
2022-09-03T12:55:35.370Z,2.63
2022-09-03T12:58:21.673Z,2.17
2022-09-03T13:01:00.036Z,2.65
2022-09-03T13:03:58.728Z,2.42
2022-09-03T13:06:33.539Z,2.53
2022-09-03T13:09:08.592Z,1.73
2022-09-03T13:11:37.358Z,2.30
2022-09-03T13:16:45.550Z,1.95
2022-09-03T13:19:46.234Z,1.77
2022-09-03T13:23:10.476Z,2.00
2022-09-03T13:26:16.297Z,1.90
2022-09-03T13:28:57.570Z,2.10
2022-09-03T13:32:01.696Z,2.42
2022-09-03T13:34:35.443Z,1.88
2022-09-03T14:11:21.380Z,1.83
2022-09-03T14:14:03.131Z,2.22
2022-09-03T14:17:08.906Z,2.35
2022-09-03T14:20:00.345Z,2.50
2022-09-03T14:22:43.670Z,1.90
2022-09-03T14:25:25.075Z,2.67
2022-09-03T14:27:55.570Z,2.47
2022-09-03T14:30:48.115Z,2.60
2022-09-03T14:34:11.875Z,2.40
2022-09-03T14:36:53.350Z,2.10
2022-09-03T14:39:59.157Z,1.88
2022-09-03T14:43:00.741Z,2.33
2022-09-03T14:45:50.946Z,2.10
2022-09-03T14:48:55.996Z,2.72
2022-09-03T14:51:56.606Z,2.17
2022-09-03T14:54:46.292Z,3.58
2022-09-03T14:57:32.166Z,2.40
2022-09-03T15:00:31.566Z,2.90
2022-09-03T15:03:43.039Z,3.47
2022-09-03T15:06:40.937Z,2.20
2022-09-03T15:10:19.216Z,15.13
2022-09-03T15:15:45.850Z,3.08
2022-09-03T15:18:38.550Z,4.20
2022-09-03T15:21:40.334Z,3.08
2022-09-03T15:24:32.622Z,3.63
2022-09-03T15:27:43.165Z,3.35
2022-09-03T15:30:21.057Z,3.03
2022-09-03T15:33:40.040Z,3.47
2022-09-03T15:36:26.717Z,3.28
2022-09-03T15:42:19.300Z,3.60
2022-09-03T15:44:52.737Z,3.20
2022-09-03T16:27:08.752Z,5.25
2022-09-03T16:29:39.980Z,5.28
2022-09-03T16:32:16.670Z,5.70
2022-09-03T16:34:57.244Z,4.88
2022-09-03T16:38:06.016Z,5.75
2022-09-03T16:40:42.924Z,4.25
2022-09-03T16:43:40.243Z,3.83
2022-09-03T16:46:23.876Z,4.22
2022-09-03T16:49:09.767Z,4.82
2022-09-03T16:51:52.805Z,4.57
2022-09-03T16:54:55.898Z,4.50
2022-09-03T16:57:59.110Z,4.05
2022-09-03T17:01:09.940Z,3.70
2022-09-03T17:04:02.341Z,3.88
2022-09-03T17:07:01.074Z,3.65
2022-09-03T17:09:28.807Z,3.42
2022-09-03T17:12:20.776Z,3.85
2022-09-03T17:15:11.972Z,4.05
2022-09-03T17:17:46.411Z,4.15
2022-09-03T17:20:47.164Z,3.80
2022-09-03T17:24:03.557Z,4.07
2022-09-03T17:27:13.077Z,4.90
2022-09-03T17:29:43.119Z,4.25
2022-09-03T17:32:37.348Z,5.00
2022-09-03T17:35:26.159Z,5.78
2022-09-03T17:37:55.168Z,4.57
2022-09-03T17:41:13.383Z,4.10
2022-09-03T17:44:26.103Z,5.40
2022-09-03T17:47:05.328Z,5.95
2022-09-03T17:49:54.688Z,6.10
2022-09-03T17:55:45.417Z,7.30
2022-09-03T17:58:31.015Z,8.15
2022-09-03T18:01:21.582Z,8.50
2022-09-03T18:04:14.087Z,7.38
2022-09-03T18:06:42.051Z,7.30
2022-09-03T18:09:52.427Z,8.25
2022-09-03T18:12:38.888Z,7.40
2022-09-03T18:15:18.972Z,7.03
2022-09-03T18:18:05.192Z,8.10
2022-09-03T18:21:23.289Z,7.85
2022-09-03T18:24:33.776Z,8.52
2022-09-03T18:27:51.788Z,8.48
2022-09-03T18:30:44.123Z,9.60
2022-09-03T18:33:38.680Z,7.95
2022-09-03T18:36:25.440Z,7.82
2022-09-03T18:39:11.738Z,7.65
2022-09-03T18:42:29.702Z,8.63
2022-09-03T18:46:34.612Z,8.77
2022-09-03T18:49:12.778Z,9.52
2022-09-03T18:52:45.727Z,8.45
2022-09-03T18:55:55.928Z,9.80
2022-09-03T18:58:51.705Z,11.00
2022-09-03T19:01:58.738Z,13.90
2022-09-03T19:05:44.564Z,15.77
2022-09-03T19:08:47.617Z,12.93
2022-09-03T19:11:53.526Z,10.95
2022-09-03T19:14:53.958Z,12.63
2022-09-03T19:18:14.091Z,11.70
2022-09-03T19:21:27.165Z,10.07
2022-09-03T19:24:21.050Z,9.93
2022-09-03T19:27:47.695Z,9.98
2022-09-03T19:30:42.221Z,9.25
2022-09-03T19:33:45.540Z,9.18
2022-09-03T19:37:10.311Z,9.55
2022-09-03T19:40:05.609Z,8.88
2022-09-03T19:43:13.117Z,8.82
2022-09-03T19:46:05.585Z,8.27
2022-09-03T19:49:17.236Z,8.95
2022-09-03T19:52:09.499Z,8.00
2022-09-03T19:54:57.445Z,7.45
2022-09-03T19:57:48.395Z,8.23
2022-09-03T20:00:35.975Z,9.55
2022-09-03T20:03:24.617Z,31.67
2022-09-03T20:06:11.891Z,17.30
2022-09-03T20:09:01.435Z,11.75
2022-09-03T20:11:31.139Z,9.10
2022-09-03T20:14:15.267Z,8.25
2022-09-03T20:17:04.956Z,7.70
2022-09-03T20:19:48.902Z,8.95
2022-09-03T20:22:29.186Z,8.07
2022-09-03T20:25:26.969Z,8.50
2022-09-03T20:28:32.991Z,8.10
2022-09-03T20:31:17.347Z,8.02
2022-09-03T20:34:24.635Z,7.70
2022-09-03T20:37:50.806Z,7.93
2022-09-03T20:40:52.414Z,6.97
2022-09-03T20:43:40.885Z,7.25
2022-09-03T20:46:41.318Z,6.37
2022-09-03T20:50:03.856Z,6.78
2022-09-03T20:53:05.471Z,6.20
2022-09-03T20:56:17.107Z,6.15
2022-09-03T20:59:32.651Z,6.18
2022-09-03T21:02:19.196Z,6.22
2022-09-03T21:41:26.859Z,9.50
2022-09-03T21:44:19.235Z,10.23
2022-09-03T21:46:57.030Z,11.32
2022-09-03T21:49:39.994Z,11.13
2022-09-03T21:52:21.392Z,13.00
2022-09-03T21:55:21.835Z,12.48
2022-09-03T21:58:38.895Z,13.52
2022-09-03T22:01:27.284Z,14.38
2022-09-03T22:03:55.896Z,14.68
2022-09-03T22:07:11.877Z,16.02
2022-09-03T22:10:10.735Z,16.13
2022-09-03T22:15:13.308Z,16.25
2022-09-03T22:18:07.431Z,17.23
2022-09-03T22:20:37.132Z,16.35
2022-09-03T22:23:20.477Z,17.02
2022-09-03T22:26:10.998Z,17.88
2022-09-03T22:28:49.372Z,17.70
2022-09-03T22:31:37.846Z,16.73
2022-09-03T22:34:42.263Z,15.93
2022-09-03T22:37:52.616Z,17.45
2022-09-03T22:40:40.102Z,16.30
2022-09-03T22:43:32.222Z,17.77
2022-09-03T22:46:13.022Z,17.90
2022-09-03T22:49:14.305Z,16.45
2022-09-03T22:52:26.528Z,18.02
2022-09-03T22:55:26.073Z,18.92
2022-09-03T22:58:11.534Z,18.83
2022-09-03T23:00:48.255Z,18.75
2022-09-03T23:03:27.552Z,19.63
2022-09-03T23:06:07.032Z,19.08
2022-09-03T23:08:59.023Z,19.83
2022-09-03T23:11:51.654Z,19.83
2022-09-03T23:14:32.307Z,20.30
2022-09-03T23:17:13.368Z,19.38
2022-09-03T23:19:47.220Z,20.80
2022-09-03T23:22:44.871Z,20.42
2022-09-03T23:25:42.141Z,19.77
2022-09-03T23:28:14.977Z,19.95
2022-09-03T23:30:43.030Z,19.88
2022-09-03T23:33:10.741Z,20.27
2022-09-03T23:36:43.326Z,21.05
2022-09-03T23:39:53.208Z,20.65
2022-09-03T23:43:03.937Z,22.38
2022-09-03T23:46:08.035Z,22.08
2022-09-03T23:48:54.241Z,22.65
2022-09-03T23:51:38.133Z,21.83
2022-09-03T23:54:29.838Z,22.15
2022-09-03T23:57:04.370Z,22.65
2022-09-03T23:59:52.435Z,21.05
